PWSweather.com
Personal Weather Stations
Station Observations
KOMOKA
Komoka Village, Komoka, ON N0L IRO

Komoka VillageKomoka, ON N0L IRO

Lat: 42.9542444, Lon: -81.4348861

Elevation: 805

Station Type: Davis Vantage Pro 2

Latest ConditionsUpdated 3:22:09 AM EDT Saturday, Apr 20, 2019
Currently Today's Max Today's Min Today's Average
Temperature 40.5°F4.7°C 40.6°F4.8°C 40.5°F4.7°C 40.5°F4.7°C
Dew Point 35.1°F1.7°C 35.2°F1.8°C 34.5°F1.4°C 35.0°F1.7°C
Winds 7.0 mph N11.3 kmh N 7.0 mph -11.3 kmh - - 5.4 mph 8.7 kmh
Wind Gusts 13.0 mph20.9 kmh 17.0 mph27.4 kmh - -
Humidity 81% 81% 79% 80%
Pressure 29.68 in1005.1 mb 29.69 in1005.4 mb 29.66 in1004.4 mb -
Precipitation - 0.07 in1.8 mm - -
Hour Temp Dew Point Humidity Winds Wind Gusts Pressure Precip Precip Rate Daily Precip Total
03:22 AM 40.5°F4.7°C 35.1°F1.7°C 81% 7.0 mph N11.3 kmh N 13.0 mph20.9 kmh 29.68 in1005.1 mb 0.02 in0.5 mm 0.09 in2.3 mm 0.07 in1.8 mm
03:15 AM 40.5°F4.7°C 35.1°F1.7°C 81% 5.0 mph N8.0 kmh N 13.0 mph20.9 kmh 29.68 in1005.1 mb 0.01 in0.3 mm 0.00 in0.0 mm 0.06 in1.5 mm
03:08 AM 40.5°F4.7°C 35.1°F1.7°C 81% 5.0 mph N8.0 kmh N 12.0 mph19.3 kmh 29.68 in1005.1 mb 0.01 in0.3 mm 0.00 in0.0 mm 0.06 in1.5 mm
03:01 AM 40.5°F4.7°C 34.7°F1.5°C 80% 5.0 mph N8.0 kmh N 15.0 mph24.1 kmh 29.68 in1005.1 mb 0.01 in0.3 mm 0.00 in0.0 mm 0.06 in1.5 mm
02:54 AM 40.5°F4.7°C 35.1°F1.7°C 81% 7.0 mph N11.3 kmh N 17.0 mph27.4 kmh 29.68 in1005.1 mb 0.01 in0.3 mm 0.00 in0.0 mm 0.06 in1.5 mm
02:47 AM 40.5°F4.7°C 35.1°F1.7°C 81% 7.0 mph N11.3 kmh N 17.0 mph27.4 kmh 29.68 in1005.1 mb 0.01 in0.3 mm 0.00 in0.0 mm 0.06 in1.5 mm
02:40 AM 40.5°F4.7°C 35.1°F1.7°C 81% 7.0 mph N11.3 kmh N 16.0 mph25.7 kmh 29.68 in1005.1 mb 0.01 in0.3 mm 0.09 in2.3 mm 0.06 in1.5 mm
02:33 AM 40.5°F4.7°C 35.1°F1.7°C 81% 7.0 mph N11.3 kmh N 16.0 mph25.7 kmh 29.67 in1004.7 mb 0.00 in0.0 mm 0.00 in0.0 mm 0.06 in1.5 mm
02:26 AM 40.5°F4.7°C 35.1°F1.7°C 81% 7.0 mph N11.3 kmh N 15.0 mph24.1 kmh 29.67 in1004.7 mb 0.02 in0.5 mm 0.00 in0.0 mm 0.06 in1.5 mm
02:19 AM 40.5°F4.7°C 35.1°F1.7°C 81% 7.0 mph N11.3 kmh N 17.0 mph27.4 kmh 29.66 in1004.4 mb 0.03 in0.8 mm 0.00 in0.0 mm 0.06 in1.5 mm
02:12 AM 40.5°F4.7°C 35.1°F1.7°C 81% 5.0 mph N8.0 kmh N 13.0 mph20.9 kmh 29.67 in1004.7 mb 0.03 in0.8 mm 0.00 in0.0 mm 0.06 in1.5 mm
02:05 AM 40.5°F4.7°C 35.1°F1.7°C 81% 5.0 mph N8.0 kmh N 12.0 mph19.3 kmh 29.67 in1004.7 mb 0.03 in0.8 mm 0.00 in0.0 mm 0.06 in1.5 mm
01:58 AM 40.5°F4.7°C 35.1°F1.7°C 81% 5.0 mph N8.0 kmh N 16.0 mph25.7 kmh 29.68 in1005.1 mb 0.03 in0.8 mm 0.09 in2.3 mm 0.06 in1.5 mm
01:51 AM 40.5°F4.7°C 34.9°F1.6°C 80% 5.0 mph N8.0 kmh N 15.0 mph24.1 kmh 29.68 in1005.1 mb 0.02 in0.5 mm 0.00 in0.0 mm 0.05 in1.3 mm
01:44 AM 40.5°F4.7°C 35.1°F1.7°C 81% 5.0 mph N8.0 kmh N 15.0 mph24.1 kmh 29.68 in1005.1 mb 0.02 in0.5 mm 0.00 in0.0 mm 0.05 in1.3 mm
01:37 AM 40.6°F4.8°C 35.2°F1.8°C 81% 5.0 mph N8.0 kmh N 13.0 mph20.9 kmh 29.68 in1005.1 mb 0.02 in0.5 mm 0.00 in0.0 mm 0.04 in1.0 mm
01:30 AM 40.6°F4.8°C 34.9°F1.6°C 80% 5.0 mph N8.0 kmh N 13.0 mph20.9 kmh 29.69 in1005.4 mb 0.02 in0.5 mm 0.00 in0.0 mm 0.03 in0.8 mm
01:23 AM 40.6°F4.8°C 34.9°F1.6°C 80% 5.0 mph N8.0 kmh N 9.0 mph14.5 kmh 29.69 in1005.4 mb 0.02 in0.5 mm 0.00 in0.0 mm 0.03 in0.8 mm
01:16 AM 40.6°F4.8°C 34.9°F1.6°C 80% 5.0 mph N8.0 kmh N 15.0 mph24.1 kmh 29.69 in1005.4 mb 0.02 in0.5 mm 0.00 in0.0 mm 0.02 in0.5 mm
01:09 AM 40.6°F4.8°C 34.9°F1.6°C 80% 5.0 mph N8.0 kmh N 15.0 mph24.1 kmh 29.69 in1005.4 mb 0.02 in0.5 mm 0.00 in0.0 mm 0.02 in0.5 mm
01:02 AM 40.6°F4.8°C 34.9°F1.6°C 80% 5.0 mph N8.0 kmh N 11.0 mph17.7 kmh 29.69 in1005.4 mb 0.02 in0.5 mm 0.00 in0.0 mm 0.02 in0.5 mm
12:55 AM 40.5°F4.7°C 34.9°F1.6°C 80% 5.0 mph N8.0 kmh N 12.0 mph19.3 kmh 29.68 in1005.1 mb 0.02 in0.5 mm 0.00 in0.0 mm 0.02 in0.5 mm
12:48 AM 40.5°F4.7°C 34.9°F1.6°C 80% 5.0 mph N8.0 kmh N 12.0 mph19.3 kmh 29.68 in1005.1 mb 0.03 in0.8 mm 0.00 in0.0 mm 0.02 in0.5 mm
12:41 AM 40.6°F4.8°C 34.9°F1.6°C 80% 5.0 mph N8.0 kmh N 15.0 mph24.1 kmh 29.68 in1005.1 mb 0.03 in0.8 mm 0.09 in2.3 mm 0.02 in0.5 mm
12:34 AM 40.6°F4.8°C 34.9°F1.6°C 80% 5.0 mph N8.0 kmh N 13.0 mph20.9 kmh 29.68 in1005.1 mb 0.02 in0.5 mm 0.00 in0.0 mm 0.02 in0.5 mm
12:27 AM 40.5°F4.7°C 34.9°F1.6°C 80% 5.0 mph N8.0 kmh N 13.0 mph20.9 kmh 29.68 in1005.1 mb 0.02 in0.5 mm 0.00 in0.0 mm 0.02 in0.5 mm
12:20 AM 40.6°F4.8°C 34.9°F1.6°C 80% 5.0 mph N8.0 kmh N 9.0 mph14.5 kmh 29.69 in1005.4 mb 0.02 in0.5 mm 0.00 in0.0 mm 0.01 in0.3 mm
12:13 AM 40.6°F4.8°C 34.9°F1.6°C 80% 4.0 mph N6.4 kmh N 9.0 mph14.5 kmh 29.69 in1005.4 mb 0.02 in0.5 mm 0.00 in0.0 mm 0.02 in0.5 mm
12:02 AM 40.6°F4.8°C 34.5°F1.4°C 79% 4.0 mph N6.4 kmh N 13.0 mph20.9 kmh 29.69 in1005.4 mb 0.02 in0.5 mm 0.60 in15.2 mm 0.02 in0.5 mm